sensor_id;sensor_type;location;lat;lon;timestamp;P1;durP1;ratioP1;P2;durP2;ratioP2
72926;SDS011;61071;51.618;19.388;2022-11-14T00:00:07;91.88;;;40.30;;
72926;SDS011;61071;51.618;19.388;2022-11-14T00:02:36;101.93;;;41.78;;
72926;SDS011;61071;51.618;19.388;2022-11-14T00:05:03;106.18;;;40.53;;
72926;SDS011;61071;51.618;19.388;2022-11-14T00:07:31;99.88;;;41.30;;
72926;SDS011;61071;51.618;19.388;2022-11-14T00:09:58;98.18;;;41.55;;
72926;SDS011;61071;51.618;19.388;2022-11-14T00:12:24;89.93;;;40.38;;
72926;SDS011;61071;51.618;19.388;2022-11-14T00:14:50;101.53;;;41.90;;
72926;SDS011;61071;51.618;19.388;2022-11-14T00:17:15;100.88;;;41.97;;
72926;SDS011;61071;51.618;19.388;2022-11-14T00:19:42;99.07;;;40.15;;
72926;SDS011;61071;51.618;19.388;2022-11-14T00:22:08;90.22;;;38.58;;
72926;SDS011;61071;51.618;19.388;2022-11-14T00:24:34;93.80;;;40.15;;
72926;SDS011;61071;51.618;19.388;2022-11-14T00:27:00;95.30;;;37.65;;
72926;SDS011;61071;51.618;19.388;2022-11-14T00:29:26;101.03;;;38.40;;
72926;SDS011;61071;51.618;19.388;2022-11-14T00:31:51;96.63;;;38.05;;
72926;SDS011;61071;51.618;19.388;2022-11-14T00:34:17;95.68;;;38.03;;
72926;SDS011;61071;51.618;19.388;2022-11-14T00:36:43;97.50;;;38.33;;
72926;SDS011;61071;51.618;19.388;2022-11-14T00:39:12;92.18;;;38.70;;
72926;SDS011;61071;51.618;19.388;2022-11-14T00:41:39;92.20;;;37.78;;
72926;SDS011;61071;51.618;19.388;2022-11-14T00:44:06;92.35;;;37.05;;
72926;SDS011;61071;51.618;19.388;2022-11-14T00:46:32;91.60;;;36.55;;
72926;SDS011;61071;51.618;19.388;2022-11-14T00:48:59;91.53;;;37.05;;
72926;SDS011;61071;51.618;19.388;2022-11-14T00:51:24;94.10;;;38.22;;
72926;SDS011;61071;51.618;19.388;2022-11-14T00:53:50;93.55;;;36.97;;
72926;SDS011;61071;51.618;19.388;2022-11-14T00:56:16;90.70;;;35.90;;
72926;SDS011;61071;51.618;19.388;2022-11-14T00:58:42;95.72;;;36.75;;
72926;SDS011;61071;51.618;19.388;2022-11-14T01:01:07;88.88;;;35.90;;
72926;SDS011;61071;51.618;19.388;2022-11-14T01:03:33;96.43;;;37.10;;
72926;SDS011;61071;51.618;19.388;2022-11-14T01:06:02;101.97;;;39.08;;
72926;SDS011;61071;51.618;19.388;2022-11-14T01:08:31;93.57;;;36.03;;
72926;SDS011;61071;51.618;19.388;2022-11-14T01:10:58;91.75;;;36.63;;
72926;SDS011;61071;51.618;19.388;2022-11-14T01:13:25;90.85;;;35.95;;
72926;SDS011;61071;51.618;19.388;2022-11-14T01:15:58;94.10;;;36.83;;
72926;SDS011;61071;51.618;19.388;2022-11-14T01:18:26;83.25;;;36.05;;
72926;SDS011;61071;51.618;19.388;2022-11-14T01:20:52;93.75;;;36.85;;
72926;SDS011;61071;51.618;19.388;2022-11-14T01:23:18;87.50;;;36.45;;
72926;SDS011;61071;51.618;19.388;2022-11-14T01:25:43;82.88;;;34.97;;
72926;SDS011;61071;51.618;19.388;2022-11-14T01:28:17;86.70;;;35.30;;
72926;SDS011;61071;51.618;19.388;2022-11-14T01:30:44;87.20;;;34.55;;
72926;SDS011;61071;51.618;19.388;2022-11-14T01:33:10;92.78;;;36.33;;
72926;SDS011;61071;51.618;19.388;2022-11-14T01:35:36;91.05;;;37.85;;
72926;SDS011;61071;51.618;19.388;2022-11-14T01:38:03;96.00;;;38.75;;
72926;SDS011;61071;51.618;19.388;2022-11-14T01:40:30;89.63;;;37.00;;
72926;SDS011;61071;51.618;19.388;2022-11-14T01:45:49;101.60;;;36.72;;
72926;SDS011;61071;51.618;19.388;2022-11-14T01:48:28;93.78;;;37.22;;
72926;SDS011;61071;51.618;19.388;2022-11-14T01:51:00;89.90;;;35.10;;
72926;SDS011;61071;51.618;19.388;2022-11-14T01:53:41;86.78;;;35.28;;
72926;SDS011;61071;51.618;19.388;2022-11-14T01:56:10;91.18;;;37.38;;
72926;SDS011;61071;51.618;19.388;2022-11-14T01:58:41;99.45;;;36.40;;
72926;SDS011;61071;51.618;19.388;2022-11-14T02:01:13;86.35;;;34.88;;
72926;SDS011;61071;51.618;19.388;2022-11-14T02:03:39;90.32;;;35.15;;
72926;SDS011;61071;51.618;19.388;2022-11-14T02:06:11;100.18;;;38.05;;
72926;SDS011;61071;51.618;19.388;2022-11-14T02:08:41;97.20;;;38.20;;
72926;SDS011;61071;51.618;19.388;2022-11-14T02:11:09;99.30;;;37.72;;
72926;SDS011;61071;51.618;19.388;2022-11-14T02:13:36;98.70;;;38.97;;
72926;SDS011;61071;51.618;19.388;2022-11-14T02:16:03;89.25;;;36.97;;
72926;SDS011;61071;51.618;19.388;2022-11-14T02:18:30;86.57;;;36.78;;
72926;SDS011;61071;51.618;19.388;2022-11-14T02:20:56;98.97;;;38.10;;
72926;SDS011;61071;51.618;19.388;2022-11-14T02:23:25;98.50;;;37.97;;
72926;SDS011;61071;51.618;19.388;2022-11-14T02:25:53;89.78;;;35.30;;
72926;SDS011;61071;51.618;19.388;2022-11-14T02:28:19;93.70;;;36.40;;
72926;SDS011;61071;51.618;19.388;2022-11-14T02:30:46;98.65;;;38.17;;
72926;SDS011;61071;51.618;19.388;2022-11-14T02:33:12;84.47;;;34.10;;
72926;SDS011;61071;51.618;19.388;2022-11-14T02:35:39;92.60;;;34.47;;
72926;SDS011;61071;51.618;19.388;2022-11-14T02:38:04;86.18;;;35.28;;
72926;SDS011;61071;51.618;19.388;2022-11-14T02:40:30;97.22;;;35.67;;
72926;SDS011;61071;51.618;19.388;2022-11-14T02:42:57;87.70;;;35.80;;
72926;SDS011;61071;51.618;19.388;2022-11-14T02:45:22;103.53;;;38.08;;
72926;SDS011;61071;51.618;19.388;2022-11-14T02:47:48;93.82;;;37.15;;
72926;SDS011;61071;51.618;19.388;2022-11-14T02:50:14;92.45;;;34.35;;
72926;SDS011;61071;51.618;19.388;2022-11-14T02:52:40;88.88;;;34.97;;
72926;SDS011;61071;51.618;19.388;2022-11-14T02:55:06;84.47;;;35.47;;
72926;SDS011;61071;51.618;19.388;2022-11-14T02:57:32;103.55;;;37.85;;
72926;SDS011;61071;51.618;19.388;2022-11-14T02:59:58;98.35;;;37.42;;
72926;SDS011;61071;51.618;19.388;2022-11-14T03:02:23;96.63;;;38.22;;
72926;SDS011;61071;51.618;19.388;2022-11-14T03:04:50;94.82;;;36.50;;
72926;SDS011;61071;51.618;19.388;2022-11-14T03:07:16;91.65;;;37.20;;
72926;SDS011;61071;51.618;19.388;2022-11-14T03:09:41;89.57;;;36.25;;
72926;SDS011;61071;51.618;19.388;2022-11-14T03:12:07;100.30;;;39.33;;
72926;SDS011;61071;51.618;19.388;2022-11-14T03:14:34;93.90;;;37.85;;
72926;SDS011;61071;51.618;19.388;2022-11-14T03:17:00;93.03;;;38.78;;
72926;SDS011;61071;51.618;19.388;2022-11-14T03:19:26;91.82;;;39.08;;
72926;SDS011;61071;51.618;19.388;2022-11-14T03:21:52;104.55;;;39.10;;
72926;SDS011;61071;51.618;19.388;2022-11-14T03:24:17;100.63;;;39.58;;
72926;SDS011;61071;51.618;19.388;2022-11-14T03:26:43;94.15;;;38.22;;
72926;SDS011;61071;51.618;19.388;2022-11-14T03:29:09;95.00;;;38.15;;
72926;SDS011;61071;51.618;19.388;2022-11-14T03:31:34;94.55;;;37.05;;
72926;SDS011;61071;51.618;19.388;2022-11-14T03:34:00;95.70;;;38.97;;
72926;SDS011;61071;51.618;19.388;2022-11-14T03:36:26;96.72;;;38.78;;
72926;SDS011;61071;51.618;19.388;2022-11-14T03:38:51;97.18;;;40.88;;
72926;SDS011;61071;51.618;19.388;2022-11-14T03:41:17;90.28;;;38.10;;
72926;SDS011;61071;51.618;19.388;2022-11-14T03:43:43;97.40;;;40.58;;
72926;SDS011;61071;51.618;19.388;2022-11-14T03:46:08;101.75;;;40.55;;
72926;SDS011;61071;51.618;19.388;2022-11-14T03:48:34;98.68;;;40.63;;
72926;SDS011;61071;51.618;19.388;2022-11-14T03:51:00;95.78;;;39.63;;
72926;SDS011;61071;51.618;19.388;2022-11-14T03:53:25;97.82;;;41.75;;
72926;SDS011;61071;51.618;19.388;2022-11-14T03:55:52;99.78;;;41.42;;
72926;SDS011;61071;51.618;19.388;2022-11-14T03:58:18;101.00;;;41.42;;
72926;SDS011;61071;51.618;19.388;2022-11-14T04:00:43;91.10;;;38.88;;
72926;SDS011;61071;51.618;19.388;2022-11-14T04:03:09;88.72;;;35.95;;
72926;SDS011;61071;51.618;19.388;2022-11-14T04:05:35;98.03;;;40.65;;
72926;SDS011;61071;51.618;19.388;2022-11-14T04:08:04;97.05;;;39.80;;
72926;SDS011;61071;51.618;19.388;2022-11-14T04:10:31;104.43;;;41.45;;
72926;SDS011;61071;51.618;19.388;2022-11-14T04:12:57;94.30;;;40.00;;
72926;SDS011;61071;51.618;19.388;2022-11-14T04:15:22;108.97;;;41.20;;
72926;SDS011;61071;51.618;19.388;2022-11-14T04:17:48;98.05;;;39.72;;
72926;SDS011;61071;51.618;19.388;2022-11-14T04:20:14;95.85;;;41.65;;
72926;SDS011;61071;51.618;19.388;2022-11-14T04:22:40;95.13;;;39.65;;
72926;SDS011;61071;51.618;19.388;2022-11-14T04:25:06;84.57;;;38.17;;
72926;SDS011;61071;51.618;19.388;2022-11-14T04:27:33;81.97;;;36.72;;
72926;SDS011;61071;51.618;19.388;2022-11-14T04:29:59;80.65;;;37.58;;
72926;SDS011;61071;51.618;19.388;2022-11-14T04:32:24;82.78;;;37.58;;
72926;SDS011;61071;51.618;19.388;2022-11-14T04:34:50;93.00;;;37.00;;
72926;SDS011;61071;51.618;19.388;2022-11-14T04:37:16;87.97;;;37.50;;
72926;SDS011;61071;51.618;19.388;2022-11-14T04:39:41;90.47;;;38.65;;
72926;SDS011;61071;51.618;19.388;2022-11-14T04:42:07;98.65;;;41.25;;
72926;SDS011;61071;51.618;19.388;2022-11-14T04:44:33;105.03;;;42.28;;
72926;SDS011;61071;51.618;19.388;2022-11-14T04:46:58;104.15;;;41.03;;
72926;SDS011;61071;51.618;19.388;2022-11-14T04:49:24;99.28;;;40.42;;
72926;SDS011;61071;51.618;19.388;2022-11-14T04:51:50;88.65;;;37.60;;
72926;SDS011;61071;51.618;19.388;2022-11-14T04:54:15;87.28;;;36.95;;
72926;SDS011;61071;51.618;19.388;2022-11-14T04:56:41;83.70;;;35.80;;
72926;SDS011;61071;51.618;19.388;2022-11-14T04:59:07;89.28;;;36.83;;
72926;SDS011;61071;51.618;19.388;2022-11-14T05:01:32;83.35;;;36.38;;
72926;SDS011;61071;51.618;19.388;2022-11-14T05:03:58;84.55;;;36.08;;
72926;SDS011;61071;51.618;19.388;2022-11-14T05:06:24;87.35;;;37.20;;
72926;SDS011;61071;51.618;19.388;2022-11-14T05:08:50;86.20;;;38.08;;
72926;SDS011;61071;51.618;19.388;2022-11-14T05:11:16;87.90;;;36.47;;
72926;SDS011;61071;51.618;19.388;2022-11-14T05:13:44;93.35;;;40.17;;
72926;SDS011;61071;51.618;19.388;2022-11-14T05:16:11;103.85;;;40.30;;
72926;SDS011;61071;51.618;19.388;2022-11-14T05:18:37;99.78;;;39.72;;
72926;SDS011;61071;51.618;19.388;2022-11-14T05:21:04;84.95;;;37.67;;
72926;SDS011;61071;51.618;19.388;2022-11-14T05:23:30;85.40;;;39.03;;
72926;SDS011;61071;51.618;19.388;2022-11-14T05:26:00;81.55;;;36.92;;
72926;SDS011;61071;51.618;19.388;2022-11-14T05:28:29;90.65;;;39.80;;
72926;SDS011;61071;51.618;19.388;2022-11-14T05:31:02;91.03;;;38.75;;
72926;SDS011;61071;51.618;19.388;2022-11-14T05:33:30;90.50;;;37.10;;
72926;SDS011;61071;51.618;19.388;2022-11-14T05:36:03;108.40;;;42.10;;
72926;SDS011;61071;51.618;19.388;2022-11-14T05:38:34;116.20;;;43.60;;
72926;SDS011;61071;51.618;19.388;2022-11-14T05:41:05;109.97;;;41.80;;
72926;SDS011;61071;51.618;19.388;2022-11-14T05:43:33;106.15;;;40.13;;
72926;SDS011;61071;51.618;19.388;2022-11-14T05:45:59;111.20;;;41.72;;
72926;SDS011;61071;51.618;19.388;2022-11-14T05:48:26;100.65;;;41.42;;
72926;SDS011;61071;51.618;19.388;2022-11-14T05:50:53;104.82;;;40.83;;
72926;SDS011;61071;51.618;19.388;2022-11-14T05:53:24;106.40;;;40.65;;
72926;SDS011;61071;51.618;19.388;2022-11-14T05:55:52;102.65;;;41.88;;
72926;SDS011;61071;51.618;19.388;2022-11-14T05:58:18;97.68;;;39.58;;
72926;SDS011;61071;51.618;19.388;2022-11-14T06:00:44;103.70;;;41.30;;
72926;SDS011;61071;51.618;19.388;2022-11-14T06:03:10;91.43;;;37.55;;
72926;SDS011;61071;51.618;19.388;2022-11-14T06:05:36;93.07;;;39.10;;
72926;SDS011;61071;51.618;19.388;2022-11-14T06:08:01;92.88;;;39.80;;
72926;SDS011;61071;51.618;19.388;2022-11-14T06:10:28;92.57;;;40.38;;
72926;SDS011;61071;51.618;19.388;2022-11-14T06:12:54;111.13;;;41.45;;
72926;SDS011;61071;51.618;19.388;2022-11-14T06:15:20;110.88;;;42.42;;
72926;SDS011;61071;51.618;19.388;2022-11-14T06:17:46;115.53;;;43.33;;
72926;SDS011;61071;51.618;19.388;2022-11-14T06:20:11;103.75;;;41.03;;
72926;SDS011;61071;51.618;19.388;2022-11-14T06:22:38;105.85;;;42.25;;
72926;SDS011;61071;51.618;19.388;2022-11-14T06:25:05;105.00;;;40.22;;
72926;SDS011;61071;51.618;19.388;2022-11-14T06:27:31;114.88;;;42.65;;
72926;SDS011;61071;51.618;19.388;2022-11-14T06:29:57;100.53;;;41.00;;
72926;SDS011;61071;51.618;19.388;2022-11-14T06:32:22;102.50;;;41.33;;
72926;SDS011;61071;51.618;19.388;2022-11-14T06:34:48;101.22;;;42.67;;
72926;SDS011;61071;51.618;19.388;2022-11-14T06:37:13;91.20;;;38.03;;
72926;SDS011;61071;51.618;19.388;2022-11-14T06:39:39;111.00;;;41.95;;
72926;SDS011;61071;51.618;19.388;2022-11-14T06:42:05;101.47;;;41.58;;
72926;SDS011;61071;51.618;19.388;2022-11-14T06:44:30;97.28;;;40.75;;
72926;SDS011;61071;51.618;19.388;2022-11-14T06:46:56;102.53;;;41.47;;
72926;SDS011;61071;51.618;19.388;2022-11-14T06:49:22;98.90;;;40.13;;
72926;SDS011;61071;51.618;19.388;2022-11-14T06:51:51;87.03;;;35.30;;
72926;SDS011;61071;51.618;19.388;2022-11-14T06:54:18;102.60;;;40.35;;
72926;SDS011;61071;51.618;19.388;2022-11-14T06:56:44;99.07;;;40.50;;
72926;SDS011;61071;51.618;19.388;2022-11-14T06:59:09;98.20;;;39.10;;
72926;SDS011;61071;51.618;19.388;2022-11-14T07:01:36;82.80;;;33.83;;
72926;SDS011;61071;51.618;19.388;2022-11-14T07:04:02;104.40;;;38.58;;
72926;SDS011;61071;51.618;19.388;2022-11-14T07:06:28;98.88;;;38.30;;
72926;SDS011;61071;51.618;19.388;2022-11-14T07:08:55;102.95;;;38.40;;
72926;SDS011;61071;51.618;19.388;2022-11-14T07:11:26;107.38;;;40.47;;
72926;SDS011;61071;51.618;19.388;2022-11-14T07:14:00;106.07;;;38.97;;
72926;SDS011;61071;51.618;19.388;2022-11-14T07:16:28;108.82;;;39.78;;
72926;SDS011;61071;51.618;19.388;2022-11-14T07:18:58;115.90;;;41.15;;
72926;SDS011;61071;51.618;19.388;2022-11-14T07:21:25;102.55;;;40.00;;
72926;SDS011;61071;51.618;19.388;2022-11-14T07:23:54;98.18;;;36.60;;
72926;SDS011;61071;51.618;19.388;2022-11-14T07:26:21;90.68;;;37.75;;
72926;SDS011;61071;51.618;19.388;2022-11-14T07:28:47;92.68;;;36.70;;
72926;SDS011;61071;51.618;19.388;2022-11-14T07:31:13;102.30;;;41.85;;
72926;SDS011;61071;51.618;19.388;2022-11-14T07:33:42;98.28;;;40.40;;
72926;SDS011;61071;51.618;19.388;2022-11-14T07:36:10;84.70;;;37.67;;
72926;SDS011;61071;51.618;19.388;2022-11-14T07:38:37;96.07;;;40.17;;
72926;SDS011;61071;51.618;19.388;2022-11-14T07:41:04;85.95;;;39.10;;
72926;SDS011;61071;51.618;19.388;2022-11-14T07:43:33;90.80;;;39.83;;
72926;SDS011;61071;51.618;19.388;2022-11-14T07:46:00;89.40;;;38.20;;
72926;SDS011;61071;51.618;19.388;2022-11-14T07:48:28;95.28;;;41.17;;
72926;SDS011;61071;51.618;19.388;2022-11-14T07:50:58;91.45;;;37.80;;
72926;SDS011;61071;51.618;19.388;2022-11-14T07:53:26;86.65;;;38.22;;
72926;SDS011;61071;51.618;19.388;2022-11-14T07:55:52;85.57;;;38.33;;
72926;SDS011;61071;51.618;19.388;2022-11-14T07:58:18;91.90;;;40.40;;
72926;SDS011;61071;51.618;19.388;2022-11-14T08:00:44;94.53;;;39.50;;
72926;SDS011;61071;51.618;19.388;2022-11-14T08:03:10;95.53;;;41.45;;
72926;SDS011;61071;51.618;19.388;2022-11-14T08:05:36;101.80;;;43.65;;
72926;SDS011;61071;51.618;19.388;2022-11-14T08:08:02;106.18;;;42.90;;
72926;SDS011;61071;51.618;19.388;2022-11-14T08:10:29;114.80;;;43.70;;
72926;SDS011;61071;51.618;19.388;2022-11-14T08:12:58;111.90;;;45.03;;
72926;SDS011;61071;51.618;19.388;2022-11-14T08:15:29;103.25;;;41.17;;
72926;SDS011;61071;51.618;19.388;2022-11-14T08:17:59;92.30;;;39.55;;
72926;SDS011;61071;51.618;19.388;2022-11-14T08:20:26;104.57;;;42.47;;
72926;SDS011;61071;51.618;19.388;2022-11-14T08:22:53;106.05;;;41.78;;
72926;SDS011;61071;51.618;19.388;2022-11-14T08:25:25;116.40;;;45.03;;
72926;SDS011;61071;51.618;19.388;2022-11-14T08:27:52;101.10;;;42.17;;
72926;SDS011;61071;51.618;19.388;2022-11-14T08:30:18;106.63;;;41.67;;
72926;SDS011;61071;51.618;19.388;2022-11-14T08:32:44;102.78;;;40.70;;
72926;SDS011;61071;51.618;19.388;2022-11-14T08:35:09;104.10;;;42.38;;
72926;SDS011;61071;51.618;19.388;2022-11-14T08:37:35;109.60;;;42.58;;
72926;SDS011;61071;51.618;19.388;2022-11-14T08:40:01;105.55;;;42.78;;
72926;SDS011;61071;51.618;19.388;2022-11-14T08:42:27;123.38;;;46.00;;
72926;SDS011;61071;51.618;19.388;2022-11-14T08:44:53;122.50;;;44.90;;
72926;SDS011;61071;51.618;19.388;2022-11-14T08:47:18;104.85;;;43.47;;
72926;SDS011;61071;51.618;19.388;2022-11-14T08:49:44;103.88;;;41.03;;
72926;SDS011;61071;51.618;19.388;2022-11-14T08:52:10;108.47;;;44.17;;
72926;SDS011;61071;51.618;19.388;2022-11-14T08:54:35;109.07;;;44.50;;
72926;SDS011;61071;51.618;19.388;2022-11-14T08:57:01;121.93;;;47.17;;
72926;SDS011;61071;51.618;19.388;2022-11-14T08:59:29;105.63;;;43.85;;
72926;SDS011;61071;51.618;19.388;2022-11-14T09:01:55;107.38;;;45.17;;
72926;SDS011;61071;51.618;19.388;2022-11-14T09:04:21;101.15;;;43.60;;
72926;SDS011;61071;51.618;19.388;2022-11-14T09:06:47;97.85;;;40.70;;
72926;SDS011;61071;51.618;19.388;2022-11-14T09:09:12;99.00;;;41.47;;
72926;SDS011;61071;51.618;19.388;2022-11-14T09:11:38;99.45;;;41.78;;
72926;SDS011;61071;51.618;19.388;2022-11-14T09:14:04;100.15;;;42.55;;
72926;SDS011;61071;51.618;19.388;2022-11-14T09:16:30;105.13;;;42.63;;
72926;SDS011;61071;51.618;19.388;2022-11-14T09:18:57;95.75;;;40.38;;
72926;SDS011;61071;51.618;19.388;2022-11-14T09:21:24;100.20;;;42.50;;
72926;SDS011;61071;51.618;19.388;2022-11-14T09:23:50;105.80;;;41.50;;
72926;SDS011;61071;51.618;19.388;2022-11-14T09:26:16;104.72;;;42.22;;
72926;SDS011;61071;51.618;19.388;2022-11-14T09:28:43;82.28;;;36.42;;
72926;SDS011;61071;51.618;19.388;2022-11-14T09:31:09;91.97;;;36.60;;
72926;SDS011;61071;51.618;19.388;2022-11-14T09:33:37;115.70;;;41.17;;
72926;SDS011;61071;51.618;19.388;2022-11-14T09:36:04;110.30;;;43.13;;
72926;SDS011;61071;51.618;19.388;2022-11-14T09:38:33;110.32;;;43.38;;
72926;SDS011;61071;51.618;19.388;2022-11-14T09:46:43;106.00;;;41.65;;
72926;SDS011;61071;51.618;19.388;2022-11-14T09:49:38;100.10;;;39.97;;
72926;SDS011;61071;51.618;19.388;2022-11-14T09:57:47;86.22;;;34.85;;
72926;SDS011;61071;51.618;19.388;2022-11-14T10:00:18;81.03;;;32.10;;
72926;SDS011;61071;51.618;19.388;2022-11-14T10:11:07;73.63;;;31.77;;
72926;SDS011;61071;51.618;19.388;2022-11-14T10:31:54;73.18;;;32.15;;
72926;SDS011;61071;51.618;19.388;2022-11-14T10:34:18;65.90;;;31.17;;
72926;SDS011;61071;51.618;19.388;2022-11-14T10:42:45;74.40;;;32.60;;
72926;SDS011;61071;51.618;19.388;2022-11-14T10:45:27;69.18;;;32.22;;
72926;SDS011;61071;51.618;19.388;2022-11-14T10:50:58;67.68;;;32.03;;
72926;SDS011;61071;51.618;19.388;2022-11-14T10:56:07;67.32;;;30.42;;
72926;SDS011;61071;51.618;19.388;2022-11-14T10:58:39;62.63;;;30.40;;
72926;SDS011;61071;51.618;19.388;2022-11-14T11:03:56;77.88;;;33.58;;
72926;SDS011;61071;51.618;19.388;2022-11-14T11:06:26;80.30;;;35.22;;
72926;SDS011;61071;51.618;19.388;2022-11-14T11:08:52;75.32;;;34.95;;
72926;SDS011;61071;51.618;19.388;2022-11-14T11:11:37;76.95;;;33.58;;
72926;SDS011;61071;51.618;19.388;2022-11-14T11:14:13;74.20;;;33.90;;
72926;SDS011;61071;51.618;19.388;2022-11-14T11:16:42;69.35;;;31.85;;
72926;SDS011;61071;51.618;19.388;2022-11-14T11:21:51;67.65;;;31.38;;
72926;SDS011;61071;51.618;19.388;2022-11-14T11:24:30;66.55;;;29.77;;
72926;SDS011;61071;51.618;19.388;2022-11-14T11:29:44;64.60;;;29.63;;
72926;SDS011;61071;51.618;19.388;2022-11-14T11:32:11;63.17;;;30.27;;
72926;SDS011;61071;51.618;19.388;2022-11-14T11:34:53;66.78;;;30.33;;
72926;SDS011;61071;51.618;19.388;2022-11-14T11:37:23;69.18;;;31.63;;
72926;SDS011;61071;51.618;19.388;2022-11-14T11:39:54;65.25;;;31.00;;
72926;SDS011;61071;51.618;19.388;2022-11-14T11:45:20;63.92;;;28.90;;
72926;SDS011;61071;51.618;19.388;2022-11-14T11:47:49;63.28;;;30.15;;
72926;SDS011;61071;51.618;19.388;2022-11-14T11:50:26;61.70;;;29.23;;
72926;SDS011;61071;51.618;19.388;2022-11-14T11:53:04;68.68;;;31.20;;
72926;SDS011;61071;51.618;19.388;2022-11-14T11:55:50;66.13;;;30.50;;
72926;SDS011;61071;51.618;19.388;2022-11-14T12:01:01;78.13;;;35.10;;
72926;SDS011;61071;51.618;19.388;2022-11-14T12:03:27;75.35;;;31.88;;
72926;SDS011;61071;51.618;19.388;2022-11-14T12:11:37;73.72;;;33.50;;
72926;SDS011;61071;51.618;19.388;2022-11-14T12:19:59;78.53;;;35.60;;
72926;SDS011;61071;51.618;19.388;2022-11-14T12:28:25;72.63;;;32.53;;
72926;SDS011;61071;51.618;19.388;2022-11-14T12:31:24;70.30;;;32.45;;
72926;SDS011;61071;51.618;19.388;2022-11-14T12:33:58;69.05;;;30.75;;
72926;SDS011;61071;51.618;19.388;2022-11-14T12:36:29;64.75;;;30.20;;
72926;SDS011;61071;51.618;19.388;2022-11-14T12:38:59;70.13;;;31.60;;
72926;SDS011;61071;51.618;19.388;2022-11-14T12:41:27;66.43;;;30.85;;
72926;SDS011;61071;51.618;19.388;2022-11-14T13:03:25;74.43;;;35.28;;
72926;SDS011;61071;51.618;19.388;2022-11-14T13:08:48;76.97;;;36.47;;
72926;SDS011;61071;51.618;19.388;2022-11-14T13:11:46;74.38;;;34.25;;
72926;SDS011;61071;51.618;19.388;2022-11-14T13:14:46;75.18;;;35.25;;
72926;SDS011;61071;51.618;19.388;2022-11-14T13:17:33;87.07;;;39.40;;
72926;SDS011;61071;51.618;19.388;2022-11-14T13:33:39;80.80;;;37.20;;
72926;SDS011;61071;51.618;19.388;2022-11-14T13:36:55;81.03;;;37.53;;
72926;SDS011;61071;51.618;19.388;2022-11-14T13:39:45;74.88;;;35.38;;
72926;SDS011;61071;51.618;19.388;2022-11-14T13:42:50;70.55;;;32.15;;
72926;SDS011;61071;51.618;19.388;2022-11-14T13:52:18;67.82;;;32.45;;
72926;SDS011;61071;51.618;19.388;2022-11-14T13:54:45;60.60;;;29.45;;
72926;SDS011;61071;51.618;19.388;2022-11-14T14:02:53;62.65;;;30.85;;
72926;SDS011;61071;51.618;19.388;2022-11-14T14:11:22;65.78;;;30.25;;
72926;SDS011;61071;51.618;19.388;2022-11-14T14:16:51;66.72;;;29.75;;
72926;SDS011;61071;51.618;19.388;2022-11-14T14:19:40;70.38;;;31.42;;
72926;SDS011;61071;51.618;19.388;2022-11-14T14:25:46;63.30;;;30.55;;
72926;SDS011;61071;51.618;19.388;2022-11-14T14:28:36;67.07;;;30.38;;
72926;SDS011;61071;51.618;19.388;2022-11-14T14:31:20;56.67;;;27.38;;
72926;SDS011;61071;51.618;19.388;2022-11-14T14:33:49;62.83;;;29.17;;
72926;SDS011;61071;51.618;19.388;2022-11-14T14:36:17;67.07;;;30.67;;
72926;SDS011;61071;51.618;19.388;2022-11-14T14:38:46;60.28;;;28.73;;
72926;SDS011;61071;51.618;19.388;2022-11-14T14:41:13;68.53;;;30.08;;
72926;SDS011;61071;51.618;19.388;2022-11-14T14:43:48;65.15;;;28.85;;
72926;SDS011;61071;51.618;19.388;2022-11-14T14:46:25;65.78;;;29.63;;
72926;SDS011;61071;51.618;19.388;2022-11-14T14:48:56;58.45;;;27.92;;
72926;SDS011;61071;51.618;19.388;2022-11-14T14:51:30;64.97;;;29.15;;
72926;SDS011;61071;51.618;19.388;2022-11-14T14:53:59;61.17;;;28.63;;
72926;SDS011;61071;51.618;19.388;2022-11-14T14:56:26;71.07;;;29.42;;
72926;SDS011;61071;51.618;19.388;2022-11-14T14:58:52;65.90;;;32.20;;
72926;SDS011;61071;51.618;19.388;2022-11-14T15:01:20;70.88;;;32.55;;
72926;SDS011;61071;51.618;19.388;2022-11-14T15:04:02;64.78;;;29.17;;
72926;SDS011;61071;51.618;19.388;2022-11-14T15:06:36;69.97;;;31.55;;
72926;SDS011;61071;51.618;19.388;2022-11-14T15:09:13;69.95;;;31.10;;
72926;SDS011;61071;51.618;19.388;2022-11-14T15:11:45;73.15;;;29.40;;
72926;SDS011;61071;51.618;19.388;2022-11-14T15:14:19;69.07;;;28.90;;
72926;SDS011;61071;51.618;19.388;2022-11-14T15:16:48;71.38;;;30.38;;
72926;SDS011;61071;51.618;19.388;2022-11-14T15:19:17;77.47;;;31.08;;
72926;SDS011;61071;51.618;19.388;2022-11-14T15:24:41;79.25;;;31.63;;
72926;SDS011;61071;51.618;19.388;2022-11-14T15:27:15;85.72;;;33.03;;
72926;SDS011;61071;51.618;19.388;2022-11-14T15:29:47;74.88;;;32.40;;
72926;SDS011;61071;51.618;19.388;2022-11-14T15:32:19;78.20;;;30.88;;
72926;SDS011;61071;51.618;19.388;2022-11-14T15:35:08;86.45;;;34.42;;
72926;SDS011;61071;51.618;19.388;2022-11-14T15:51:43;89.78;;;38.40;;
72926;SDS011;61071;51.618;19.388;2022-11-14T15:56:52;88.78;;;36.08;;
72926;SDS011;61071;51.618;19.388;2022-11-14T15:59:22;101.40;;;38.20;;
72926;SDS011;61071;51.618;19.388;2022-11-14T16:01:49;101.47;;;40.10;;
72926;SDS011;61071;51.618;19.388;2022-11-14T16:04:25;99.53;;;39.20;;
72926;SDS011;61071;51.618;19.388;2022-11-14T16:06:57;96.47;;;38.42;;
72926;SDS011;61071;51.618;19.388;2022-11-14T16:09:23;91.57;;;36.80;;
72926;SDS011;61071;51.618;19.388;2022-11-14T16:11:48;101.32;;;40.13;;
72926;SDS011;61071;51.618;19.388;2022-11-14T16:14:14;98.43;;;38.65;;
72926;SDS011;61071;51.618;19.388;2022-11-14T16:16:40;110.28;;;41.30;;
72926;SDS011;61071;51.618;19.388;2022-11-14T16:19:06;102.97;;;40.75;;
72926;SDS011;61071;51.618;19.388;2022-11-14T16:21:35;116.60;;;42.00;;
72926;SDS011;61071;51.618;19.388;2022-11-14T16:24:01;105.72;;;39.50;;
72926;SDS011;61071;51.618;19.388;2022-11-14T16:26:27;111.28;;;41.47;;
72926;SDS011;61071;51.618;19.388;2022-11-14T16:28:54;114.72;;;43.83;;
72926;SDS011;61071;51.618;19.388;2022-11-14T16:31:21;107.95;;;40.75;;
72926;SDS011;61071;51.618;19.388;2022-11-14T16:33:47;109.35;;;42.20;;
72926;SDS011;61071;51.618;19.388;2022-11-14T16:36:13;104.13;;;40.80;;
72926;SDS011;61071;51.618;19.388;2022-11-14T16:38:38;104.72;;;41.28;;
72926;SDS011;61071;51.618;19.388;2022-11-14T16:41:07;109.70;;;41.90;;
72926;SDS011;61071;51.618;19.388;2022-11-14T16:43:34;103.40;;;41.33;;
72926;SDS011;61071;51.618;19.388;2022-11-14T16:46:03;125.32;;;44.97;;
72926;SDS011;61071;51.618;19.388;2022-11-14T16:48:29;124.50;;;44.60;;
72926;SDS011;61071;51.618;19.388;2022-11-14T16:50:58;129.50;;;46.95;;
72926;SDS011;61071;51.618;19.388;2022-11-14T16:53:26;127.23;;;47.80;;
72926;SDS011;61071;51.618;19.388;2022-11-14T16:55:52;119.07;;;46.70;;
72926;SDS011;61071;51.618;19.388;2022-11-14T16:58:18;122.57;;;49.22;;